F\v Arvorig — FGUI — position and weather

sailwx.info

Track history (hours):
 
Tides and Currents Weather Stations Pressure Air Temp Water Temp Dewpoint Dewpoint Depression Visibility Wind Speed Wind Dir Waves Ship Positions

F\v Arvorig

Last reported at 2018-May-23 03:53 UTC. Time now 2018-May-27 08:09 UTC.
Position N 47°39' W 004°36'.

Length 17 m; draft 4 m.

Type: Fishing. MMSI: 227430000.

Date/timePositionNaut miles runAvg speedWind from/ knotsBaromVisibWave heightAir tempDewpointWater temp
2018-May-23 03:53N 47°39' W 004°36'5 0.2
2018-May-22 06:38N 47°40' W 004°43'2 3.5
2018-May-22 05:58N 47°40' W 004°40'14 2.9
2018-May-22 01:01N 47°43' W 005°01'1 3.6
2018-May-22 00:48N 47°44' W 005°01'7 0.6
2018-May-21 13:45N 47°41' W 004°52'24 1.8
2018-May-21 00:54N 47°47' W 004°18'1 0.0
2018-May-19 05:47N 47°48' W 004°17'23 1.1
2018-May-18 08:33N 47°41' W 004°50'1 2.4
2018-May-18 08:20N 47°41' W 004°50'1 0.5
2018-May-18 05:52N 47°41' W 004°51'2 3.3
2018-May-18 05:08N 47°41' W 004°55'0 2.5
2018-May-18 04:59N 47°42' W 004°55'2 3.1
2018-May-18 04:18N 47°44' W 004°57'1 2.9
2018-May-18 04:00N 47°44' W 004°57'2 3.3
2018-May-18 03:30N 47°44' W 004°59'2 2.9
2018-May-18 02:58N 47°45' W 005°02'2 3.4
2018-May-18 02:28N 47°45' W 005°04'2 3.4
2018-May-18 02:00N 47°45' W 005°06'4 7.9
2018-May-18 01:31N 47°44' W 005°12'2 3.7
2018-May-18 01:01N 47°44' W 005°15'1 2.6
2018-May-18 00:30N 47°46' W 005°15'3 2.9
2018-May-17 23:38N 47°47' W 005°12'4 3.6
2018-May-17 22:35N 47°45' W 005°07'0 3.4
2018-May-17 22:28N 47°45' W 005°07'5 3.4
2018-May-17 21:04N 47°45' W 004°60'0 2.9
2018-May-17 20:59N 47°45' W 004°60'27 0.8
2018-May-16 12:33N 47°46' W 004°19'31 2.7
2018-May-16 00:43N 47°42' W 005°05'0 1.4
2018-May-16 00:25N 47°42' W 005°06'8 2.1
2018-May-15 20:39N 47°44' W 004°54'0 1.1
2018-May-15 20:25N 47°44' W 004°54'2 3.4
2018-May-15 19:51N 47°44' W 004°56'5 2.4
2018-May-15 17:47N 47°42' W 004°49'16 1.1
2018-May-15 02:48N 47°45' W 004°26'4 8.7
2018-May-15 02:23N 47°46' W 004°21'22 0.8
2018-May-13 20:58N 47°45' W 004°54'  
Track history (hours):
 
Tides and Currents Weather Stations Pressure Air Temp Water Temp Dewpoint Dewpoint Depression Visibility Wind Speed Wind Dir Waves Ship Positions

F\v Arvorig

Last reported at 2018-May-23 03:53 UTC. Time now 2018-May-27 08:09 UTC.
Position N 47°39' W 004°36'.

Length 17 m; draft 4 m.

Type: Fishing. MMSI: 227430000.

Date/timePositionNaut miles runAvg speedWind from/ knotsBaromVisibWave heightAir tempDewpointWater temp
2018-May-23 03:53N 47°39' W 004°36'5 0.2
2018-May-22 06:38N 47°40' W 004°43'2 3.5
2018-May-22 05:58N 47°40' W 004°40'14 2.9
2018-May-22 01:01N 47°43' W 005°01'1 3.6
2018-May-22 00:48N 47°44' W 005°01'7 0.6
2018-May-21 13:45N 47°41' W 004°52'24 1.8
2018-May-21 00:54N 47°47' W 004°18'1 0.0
2018-May-19 05:47N 47°48' W 004°17'23 1.1
2018-May-18 08:33N 47°41' W 004°50'1 2.4
2018-May-18 08:20N 47°41' W 004°50'1 0.5
2018-May-18 05:52N 47°41' W 004°51'2 3.3
2018-May-18 05:08N 47°41' W 004°55'0 2.5
2018-May-18 04:59N 47°42' W 004°55'2 3.1
2018-May-18 04:18N 47°44' W 004°57'1 2.9
2018-May-18 04:00N 47°44' W 004°57'2 3.3
2018-May-18 03:30N 47°44' W 004°59'2 2.9
2018-May-18 02:58N 47°45' W 005°02'2 3.4
2018-May-18 02:28N 47°45' W 005°04'2 3.4
2018-May-18 02:00N 47°45' W 005°06'4 7.9
2018-May-18 01:31N 47°44' W 005°12'2 3.7
2018-May-18 01:01N 47°44' W 005°15'1 2.6
2018-May-18 00:30N 47°46' W 005°15'3 2.9
2018-May-17 23:38N 47°47' W 005°12'4 3.6
2018-May-17 22:35N 47°45' W 005°07'0 3.4
2018-May-17 22:28N 47°45' W 005°07'5 3.4
2018-May-17 21:04N 47°45' W 004°60'0 2.9
2018-May-17 20:59N 47°45' W 004°60'27 0.8
2018-May-16 12:33N 47°46' W 004°19'31 2.7
2018-May-16 00:43N 47°42' W 005°05'0 1.4
2018-May-16 00:25N 47°42' W 005°06'8 2.1
2018-May-15 20:39N 47°44' W 004°54'0 1.1
2018-May-15 20:25N 47°44' W 004°54'2 3.4
2018-May-15 19:51N 47°44' W 004°56'5 2.4
2018-May-15 17:47N 47°42' W 004°49'16 1.1
2018-May-15 02:48N 47°45' W 004°26'4 8.7
2018-May-15 02:23N 47°46' W 004°21'22 0.8
2018-May-13 20:58N 47°45' W 004°54'  

Dump ship's entire track history